sensor_id;sensor_type;location;lat;lon;timestamp;P1;P2;P0
63707;PMS5003;67643;-34.198;22.084;2023-06-05T00:00:07;2;2;
63707;PMS5003;67643;-34.198;22.084;2023-06-05T00:09:47;0;0;
63707;PMS5003;67643;-34.198;22.084;2023-06-05T00:12:15;0;0;
63707;PMS5003;67643;-34.198;22.084;2023-06-05T00:14:43;1;1;
63707;PMS5003;67643;-34.198;22.084;2023-06-05T00:17:12;5;0;
63707;PMS5003;67643;-34.198;22.084;2023-06-05T00:19:41;2;1;
63707;PMS5003;67643;-34.198;22.084;2023-06-05T00:22:09;3;3;
63707;PMS5003;67643;-34.198;22.084;2023-06-05T00:24:38;2;0;
63707;PMS5003;67643;-34.198;22.084;2023-06-05T00:27:07;2;1;
63707;PMS5003;67643;-34.198;22.084;2023-06-05T00:29:35;1;0;
63707;PMS5003;67643;-34.198;22.084;2023-06-05T00:32:04;1;1;
63707;PMS5003;67643;-34.198;22.084;2023-06-05T00:34:32;1;1;
63707;PMS5003;67643;-34.198;22.084;2023-06-05T00:37:01;0;0;
63707;PMS5003;67643;-34.198;22.084;2023-06-05T00:39:29;1;1;
63707;PMS5003;67643;-34.198;22.084;2023-06-05T00:41:58;1;1;
63707;PMS5003;67643;-34.198;22.084;2023-06-05T00:44:26;1;1;
63707;PMS5003;67643;-34.198;22.084;2023-06-05T00:46:55;3;1;
63707;PMS5003;67643;-34.198;22.084;2023-06-05T00:49:23;0;0;
63707;PMS5003;67643;-34.198;22.084;2023-06-05T00:51:52;2;0;
63707;PMS5003;67643;-34.198;22.084;2023-06-05T00:54:21;0;0;
63707;PMS5003;67643;-34.198;22.084;2023-06-05T00:56:49;0;0;
63707;PMS5003;67643;-34.198;22.084;2023-06-05T00:59:18;0;0;
63707;PMS5003;67643;-34.198;22.084;2023-06-05T01:01:46;4;1;
63707;PMS5003;67643;-34.198;22.084;2023-06-05T01:04:15;1;1;
63707;PMS5003;67643;-34.198;22.084;2023-06-05T01:06:43;1;1;
63707;PMS5003;67643;-34.198;22.084;2023-06-05T01:09:12;3;0;
63707;PMS5003;67643;-34.198;22.084;2023-06-05T01:11:44;1;1;
63707;PMS5003;67643;-34.198;22.084;2023-06-05T01:14:21;2;1;
63707;PMS5003;67643;-34.198;22.084;2023-06-05T01:16:50;4;0;
63707;PMS5003;67643;-34.198;22.084;2023-06-05T01:19:20;1;1;
63707;PMS5003;67643;-34.198;22.084;2023-06-05T01:21:49;0;0;
63707;PMS5003;67643;-34.198;22.084;2023-06-05T01:24:17;2;1;
63707;PMS5003;67643;-34.198;22.084;2023-06-05T01:26:55;0;0;
63707;PMS5003;67643;-34.198;22.084;2023-06-05T01:29:32;5;1;
63707;PMS5003;67643;-34.198;22.084;2023-06-05T01:32:07;3;1;
63707;PMS5003;67643;-34.198;22.084;2023-06-05T01:34:44;1;1;
63707;PMS5003;67643;-34.198;22.084;2023-06-05T01:37:14;3;0;
63707;PMS5003;67643;-34.198;22.084;2023-06-05T01:39:45;3;1;
63707;PMS5003;67643;-34.198;22.084;2023-06-05T01:42:15;2;0;
63707;PMS5003;67643;-34.198;22.084;2023-06-05T01:44:44;1;1;
63707;PMS5003;67643;-34.198;22.084;2023-06-05T01:47:14;1;1;
63707;PMS5003;67643;-34.198;22.084;2023-06-05T01:49:43;0;0;
63707;PMS5003;67643;-34.198;22.084;2023-06-05T01:52:11;1;1;
63707;PMS5003;67643;-34.198;22.084;2023-06-05T01:54:39;0;0;
63707;PMS5003;67643;-34.198;22.084;2023-06-05T01:57:08;2;0;
63707;PMS5003;67643;-34.198;22.084;2023-06-05T01:59:36;1;0;
63707;PMS5003;67643;-34.198;22.084;2023-06-05T02:02:31;0;0;
63707;PMS5003;67643;-34.198;22.084;2023-06-05T02:05:00;1;0;
63707;PMS5003;67643;-34.198;22.084;2023-06-05T02:07:28;3;1;
63707;PMS5003;67643;-34.198;22.084;2023-06-05T02:09:57;3;0;
63707;PMS5003;67643;-34.198;22.084;2023-06-05T02:12:26;3;1;
63707;PMS5003;67643;-34.198;22.084;2023-06-05T02:14:54;0;0;
63707;PMS5003;67643;-34.198;22.084;2023-06-05T02:17:23;1;0;
63707;PMS5003;67643;-34.198;22.084;2023-06-05T02:19:52;0;0;
63707;PMS5003;67643;-34.198;22.084;2023-06-05T02:22:20;1;1;
63707;PMS5003;67643;-34.198;22.084;2023-06-05T02:24:49;0;0;
63707;PMS5003;67643;-34.198;22.084;2023-06-05T02:27:18;1;1;
63707;PMS5003;67643;-34.198;22.084;2023-06-05T02:29:51;1;1;
63707;PMS5003;67643;-34.198;22.084;2023-06-05T02:32:19;0;0;
63707;PMS5003;67643;-34.198;22.084;2023-06-05T02:34:47;1;1;
63707;PMS5003;67643;-34.198;22.084;2023-06-05T02:37:16;4;1;
63707;PMS5003;67643;-34.198;22.084;2023-06-05T02:39:45;2;1;
63707;PMS5003;67643;-34.198;22.084;2023-06-05T02:42:13;0;0;
63707;PMS5003;67643;-34.198;22.084;2023-06-05T02:44:42;1;1;
63707;PMS5003;67643;-34.198;22.084;2023-06-05T02:47:10;4;4;
63707;PMS5003;67643;-34.198;22.084;2023-06-05T02:49:38;0;0;
63707;PMS5003;67643;-34.198;22.084;2023-06-05T02:52:06;0;0;
63707;PMS5003;67643;-34.198;22.084;2023-06-05T02:54:35;0;0;
63707;PMS5003;67643;-34.198;22.084;2023-06-05T02:57:04;0;0;
63707;PMS5003;67643;-34.198;22.084;2023-06-05T02:59:32;3;0;
63707;PMS5003;67643;-34.198;22.084;2023-06-05T03:02:01;3;1;
63707;PMS5003;67643;-34.198;22.084;2023-06-05T03:04:30;3;2;
63707;PMS5003;67643;-34.198;22.084;2023-06-05T03:06:58;1;1;
63707;PMS5003;67643;-34.198;22.084;2023-06-05T03:09:27;2;0;
63707;PMS5003;67643;-34.198;22.084;2023-06-05T03:11:56;1;1;
63707;PMS5003;67643;-34.198;22.084;2023-06-05T03:14:25;2;0;
63707;PMS5003;67643;-34.198;22.084;2023-06-05T03:16:53;0;0;
63707;PMS5003;67643;-34.198;22.084;2023-06-05T03:19:22;0;0;
63707;PMS5003;67643;-34.198;22.084;2023-06-05T03:21:50;4;1;
63707;PMS5003;67643;-34.198;22.084;2023-06-05T03:24:19;1;1;
63707;PMS5003;67643;-34.198;22.084;2023-06-05T03:26:48;2;2;
63707;PMS5003;67643;-34.198;22.084;2023-06-05T03:29:16;0;0;
63707;PMS5003;67643;-34.198;22.084;2023-06-05T03:31:45;3;0;
63707;PMS5003;67643;-34.198;22.084;2023-06-05T03:34:14;0;0;
63707;PMS5003;67643;-34.198;22.084;2023-06-05T03:36:42;0;0;
63707;PMS5003;67643;-34.198;22.084;2023-06-05T03:39:11;0;0;
63707;PMS5003;67643;-34.198;22.084;2023-06-05T03:41:39;0;0;
63707;PMS5003;67643;-34.198;22.084;2023-06-05T03:44:08;2;1;
63707;PMS5003;67643;-34.198;22.084;2023-06-05T03:46:36;1;0;
63707;PMS5003;67643;-34.198;22.084;2023-06-05T03:49:05;2;0;
63707;PMS5003;67643;-34.198;22.084;2023-06-05T03:51:34;0;0;
63707;PMS5003;67643;-34.198;22.084;2023-06-05T03:54:04;3;2;
63707;PMS5003;67643;-34.198;22.084;2023-06-05T03:56:33;2;0;
63707;PMS5003;67643;-34.198;22.084;2023-06-05T03:59:02;2;1;
63707;PMS5003;67643;-34.198;22.084;2023-06-05T04:01:30;2;1;
63707;PMS5003;67643;-34.198;22.084;2023-06-05T04:04:00;1;0;
63707;PMS5003;67643;-34.198;22.084;2023-06-05T04:06:29;1;1;
63707;PMS5003;67643;-34.198;22.084;2023-06-05T04:08:57;0;0;
63707;PMS5003;67643;-34.198;22.084;2023-06-05T04:11:26;2;0;
63707;PMS5003;67643;-34.198;22.084;2023-06-05T04:13:55;1;1;
63707;PMS5003;67643;-34.198;22.084;2023-06-05T04:16:24;0;0;
63707;PMS5003;67643;-34.198;22.084;2023-06-05T04:18:52;1;1;
63707;PMS5003;67643;-34.198;22.084;2023-06-05T04:21:21;0;0;
63707;PMS5003;67643;-34.198;22.084;2023-06-05T04:23:50;1;1;
63707;PMS5003;67643;-34.198;22.084;2023-06-05T04:26:18;0;0;
63707;PMS5003;67643;-34.198;22.084;2023-06-05T04:28:47;0;0;
63707;PMS5003;67643;-34.198;22.084;2023-06-05T04:31:15;1;0;
63707;PMS5003;67643;-34.198;22.084;2023-06-05T04:33:44;0;0;
63707;PMS5003;67643;-34.198;22.084;2023-06-05T04:36:13;0;0;
63707;PMS5003;67643;-34.198;22.084;2023-06-05T04:38:42;0;0;
63707;PMS5003;67643;-34.198;22.084;2023-06-05T04:41:10;1;1;
63707;PMS5003;67643;-34.198;22.084;2023-06-05T04:43:39;1;1;
63707;PMS5003;67643;-34.198;22.084;2023-06-05T04:46:07;1;0;
63707;PMS5003;67643;-34.198;22.084;2023-06-05T04:48:36;1;1;
63707;PMS5003;67643;-34.198;22.084;2023-06-05T04:51:05;0;0;
63707;PMS5003;67643;-34.198;22.084;2023-06-05T04:53:33;2;0;
63707;PMS5003;67643;-34.198;22.084;2023-06-05T04:56:02;1;1;
63707;PMS5003;67643;-34.198;22.084;2023-06-05T04:58:31;2;1;
63707;PMS5003;67643;-34.198;22.084;2023-06-05T05:00:59;0;0;
63707;PMS5003;67643;-34.198;22.084;2023-06-05T05:03:28;1;0;
63707;PMS5003;67643;-34.198;22.084;2023-06-05T05:05:56;0;0;
63707;PMS5003;67643;-34.198;22.084;2023-06-05T05:08:46;0;0;
63707;PMS5003;67643;-34.198;22.084;2023-06-05T05:11:15;1;1;
63707;PMS5003;67643;-34.198;22.084;2023-06-05T05:13:43;0;0;
63707;PMS5003;67643;-34.198;22.084;2023-06-05T05:16:12;1;1;
63707;PMS5003;67643;-34.198;22.084;2023-06-05T05:18:43;1;1;
63707;PMS5003;67643;-34.198;22.084;2023-06-05T05:21:12;1;1;
63707;PMS5003;67643;-34.198;22.084;2023-06-05T05:23:40;2;0;
63707;PMS5003;67643;-34.198;22.084;2023-06-05T05:26:09;4;1;
63707;PMS5003;67643;-34.198;22.084;2023-06-05T05:28:37;4;0;
63707;PMS5003;67643;-34.198;22.084;2023-06-05T05:31:06;1;1;
63707;PMS5003;67643;-34.198;22.084;2023-06-05T05:33:34;0;0;
63707;PMS5003;67643;-34.198;22.084;2023-06-05T05:36:03;1;0;
63707;PMS5003;67643;-34.198;22.084;2023-06-05T05:38:31;2;1;
63707;PMS5003;67643;-34.198;22.084;2023-06-05T05:41:00;4;1;
63707;PMS5003;67643;-34.198;22.084;2023-06-05T05:43:28;2;2;
63707;PMS5003;67643;-34.198;22.084;2023-06-05T05:45:57;0;0;
63707;PMS5003;67643;-34.198;22.084;2023-06-05T05:48:25;1;1;
63707;PMS5003;67643;-34.198;22.084;2023-06-05T05:50:54;1;1;
63707;PMS5003;67643;-34.198;22.084;2023-06-05T05:53:22;0;0;
63707;PMS5003;67643;-34.198;22.084;2023-06-05T05:55:51;1;1;
63707;PMS5003;67643;-34.198;22.084;2023-06-05T05:58:20;1;0;
63707;PMS5003;67643;-34.198;22.084;2023-06-05T06:00:48;0;0;
63707;PMS5003;67643;-34.198;22.084;2023-06-05T06:03:17;0;0;
63707;PMS5003;67643;-34.198;22.084;2023-06-05T06:05:46;1;1;
63707;PMS5003;67643;-34.198;22.084;2023-06-05T06:08:14;2;1;
63707;PMS5003;67643;-34.198;22.084;2023-06-05T06:10:43;0;0;
63707;PMS5003;67643;-34.198;22.084;2023-06-05T06:13:12;3;1;
63707;PMS5003;67643;-34.198;22.084;2023-06-05T06:15:40;2;2;
63707;PMS5003;67643;-34.198;22.084;2023-06-05T06:18:09;2;2;
63707;PMS5003;67643;-34.198;22.084;2023-06-05T06:20:38;3;3;
63707;PMS5003;67643;-34.198;22.084;2023-06-05T06:23:07;3;3;
63707;PMS5003;67643;-34.198;22.084;2023-06-05T06:25:36;4;4;
63707;PMS5003;67643;-34.198;22.084;2023-06-05T06:28:04;7;3;
63707;PMS5003;67643;-34.198;22.084;2023-06-05T06:30:33;4;3;
63707;PMS5003;67643;-34.198;22.084;2023-06-05T06:33:02;5;3;
63707;PMS5003;67643;-34.198;22.084;2023-06-05T06:35:30;1;1;
63707;PMS5003;67643;-34.198;22.084;2023-06-05T06:37:59;3;2;
63707;PMS5003;67643;-34.198;22.084;2023-06-05T06:40:27;7;3;
63707;PMS5003;67643;-34.198;22.084;2023-06-05T06:42:56;4;4;
63707;PMS5003;67643;-34.198;22.084;2023-06-05T06:45:24;2;2;
63707;PMS5003;67643;-34.198;22.084;2023-06-05T06:47:53;4;4;
63707;PMS5003;67643;-34.198;22.084;2023-06-05T06:50:21;3;2;
63707;PMS5003;67643;-34.198;22.084;2023-06-05T06:52:50;3;2;
63707;PMS5003;67643;-34.198;22.084;2023-06-05T06:55:19;7;4;
63707;PMS5003;67643;-34.198;22.084;2023-06-05T06:57:47;3;3;
63707;PMS5003;67643;-34.198;22.084;2023-06-05T07:00:16;2;2;
63707;PMS5003;67643;-34.198;22.084;2023-06-05T07:02:44;3;3;
63707;PMS5003;67643;-34.198;22.084;2023-06-05T07:05:13;4;2;
63707;PMS5003;67643;-34.198;22.084;2023-06-05T07:07:41;2;2;
63707;PMS5003;67643;-34.198;22.084;2023-06-05T07:10:11;1;1;
63707;PMS5003;67643;-34.198;22.084;2023-06-05T07:12:39;4;3;
63707;PMS5003;67643;-34.198;22.084;2023-06-05T07:15:08;1;1;
63707;PMS5003;67643;-34.198;22.084;2023-06-05T07:17:38;2;2;
63707;PMS5003;67643;-34.198;22.084;2023-06-05T07:20:07;2;2;
63707;PMS5003;67643;-34.198;22.084;2023-06-05T07:22:36;6;3;
63707;PMS5003;67643;-34.198;22.084;2023-06-05T07:25:09;0;0;
63707;PMS5003;67643;-34.198;22.084;2023-06-05T07:27:38;2;2;
63707;PMS5003;67643;-34.198;22.084;2023-06-05T07:30:07;2;2;
63707;PMS5003;67643;-34.198;22.084;2023-06-05T07:32:36;5;3;
63707;PMS5003;67643;-34.198;22.084;2023-06-05T07:35:05;3;1;
63707;PMS5003;67643;-34.198;22.084;2023-06-05T07:37:34;17;14;
63707;PMS5003;67643;-34.198;22.084;2023-06-05T07:40:03;16;13;
63707;PMS5003;67643;-34.198;22.084;2023-06-05T07:42:32;9;9;
63707;PMS5003;67643;-34.198;22.084;2023-06-05T07:45:01;8;8;
63707;PMS5003;67643;-34.198;22.084;2023-06-05T07:47:30;8;7;
63707;PMS5003;67643;-34.198;22.084;2023-06-05T07:49:58;9;9;
63707;PMS5003;67643;-34.198;22.084;2023-06-05T07:52:27;10;9;
63707;PMS5003;67643;-34.198;22.084;2023-06-05T07:54:57;9;8;
63707;PMS5003;67643;-34.198;22.084;2023-06-05T07:57:25;7;7;
63707;PMS5003;67643;-34.198;22.084;2023-06-05T07:59:54;12;9;
63707;PMS5003;67643;-34.198;22.084;2023-06-05T08:02:22;12;10;
63707;PMS5003;67643;-34.198;22.084;2023-06-05T08:04:51;14;11;
63707;PMS5003;67643;-34.198;22.084;2023-06-05T08:07:20;9;8;
63707;PMS5003;67643;-34.198;22.084;2023-06-05T08:09:48;8;8;
63707;PMS5003;67643;-34.198;22.084;2023-06-05T08:12:17;4;4;
63707;PMS5003;67643;-34.198;22.084;2023-06-05T08:14:46;13;7;
63707;PMS5003;67643;-34.198;22.084;2023-06-05T08:17:14;8;6;
63707;PMS5003;67643;-34.198;22.084;2023-06-05T08:19:43;9;8;
63707;PMS5003;67643;-34.198;22.084;2023-06-05T08:22:12;8;6;
63707;PMS5003;67643;-34.198;22.084;2023-06-05T08:24:41;7;7;
63707;PMS5003;67643;-34.198;22.084;2023-06-05T08:27:10;8;7;
63707;PMS5003;67643;-34.198;22.084;2023-06-05T08:29:38;9;6;
63707;PMS5003;67643;-34.198;22.084;2023-06-05T08:32:06;5;5;
63707;PMS5003;67643;-34.198;22.084;2023-06-05T08:34:35;4;4;
63707;PMS5003;67643;-34.198;22.084;2023-06-05T08:37:04;8;6;
63707;PMS5003;67643;-34.198;22.084;2023-06-05T08:39:33;6;3;
63707;PMS5003;67643;-34.198;22.084;2023-06-05T08:42:01;5;5;
63707;PMS5003;67643;-34.198;22.084;2023-06-05T08:44:30;6;3;
63707;PMS5003;67643;-34.198;22.084;2023-06-05T08:46:59;2;2;
63707;PMS5003;67643;-34.198;22.084;2023-06-05T08:49:29;4;2;
63707;PMS5003;67643;-34.198;22.084;2023-06-05T08:51:57;1;1;
63707;PMS5003;67643;-34.198;22.084;2023-06-05T08:54:33;2;2;
63707;PMS5003;67643;-34.198;22.084;2023-06-05T08:57:05;4;4;
63707;PMS5003;67643;-34.198;22.084;2023-06-05T08:59:35;2;2;
63707;PMS5003;67643;-34.198;22.084;2023-06-05T09:02:03;3;2;
63707;PMS5003;67643;-34.198;22.084;2023-06-05T09:04:32;5;2;
63707;PMS5003;67643;-34.198;22.084;2023-06-05T09:07:00;1;1;
63707;PMS5003;67643;-34.198;22.084;2023-06-05T09:09:29;1;1;
63707;PMS5003;67643;-34.198;22.084;2023-06-05T09:12:01;1;1;
63707;PMS5003;67643;-34.198;22.084;2023-06-05T09:14:31;2;1;
63707;PMS5003;67643;-34.198;22.084;2023-06-05T09:17:00;1;1;
63707;PMS5003;67643;-34.198;22.084;2023-06-05T09:19:35;0;0;
63707;PMS5003;67643;-34.198;22.084;2023-06-05T09:22:05;2;1;
63707;PMS5003;67643;-34.198;22.084;2023-06-05T09:24:35;0;0;
63707;PMS5003;67643;-34.198;22.084;2023-06-05T09:27:05;2;1;
63707;PMS5003;67643;-34.198;22.084;2023-06-05T09:29:35;1;1;
63707;PMS5003;67643;-34.198;22.084;2023-06-05T09:32:05;1;1;
63707;PMS5003;67643;-34.198;22.084;2023-06-05T09:34:33;4;1;
63707;PMS5003;67643;-34.198;22.084;2023-06-05T09:37:04;2;2;
63707;PMS5003;67643;-34.198;22.084;2023-06-05T09:39:34;2;0;
63707;PMS5003;67643;-34.198;22.084;2023-06-05T09:42:05;1;1;
63707;PMS5003;67643;-34.198;22.084;2023-06-05T09:44:34;4;3;
63707;PMS5003;67643;-34.198;22.084;2023-06-05T09:47:04;1;1;
63707;PMS5003;67643;-34.198;22.084;2023-06-05T09:49:46;2;2;
63707;PMS5003;67643;-34.198;22.084;2023-06-05T09:52:14;5;4;
63707;PMS5003;67643;-34.198;22.084;2023-06-05T09:54:43;3;3;
63707;PMS5003;67643;-34.198;22.084;2023-06-05T09:57:14;2;2;
63707;PMS5003;67643;-34.198;22.084;2023-06-05T09:59:48;2;2;
63707;PMS5003;67643;-34.198;22.084;2023-06-05T10:02:19;3;2;
63707;PMS5003;67643;-34.198;22.084;2023-06-05T10:04:52;2;2;
63707;PMS5003;67643;-34.198;22.084;2023-06-05T10:07:24;4;3;
63707;PMS5003;67643;-34.198;22.084;2023-06-05T10:09:53;3;2;
63707;PMS5003;67643;-34.198;22.084;2023-06-05T10:12:23;5;4;
63707;PMS5003;67643;-34.198;22.084;2023-06-05T10:14:52;7;4;
63707;PMS5003;67643;-34.198;22.084;2023-06-05T10:17:21;5;5;
63707;PMS5003;67643;-34.198;22.084;2023-06-05T10:19:51;11;11;
63707;PMS5003;67643;-34.198;22.084;2023-06-05T10:22:19;8;6;
63707;PMS5003;67643;-34.198;22.084;2023-06-05T10:24:50;20;20;
63707;PMS5003;67643;-34.198;22.084;2023-06-05T10:27:27;13;13;
63707;PMS5003;67643;-34.198;22.084;2023-06-05T10:30:40;23;22;
63707;PMS5003;67643;-34.198;22.084;2023-06-05T10:33:40;26;25;
63707;PMS5003;67643;-34.198;22.084;2023-06-05T10:36:23;24;20;
63707;PMS5003;67643;-34.198;22.084;2023-06-05T10:39:05;23;21;
63707;PMS5003;67643;-34.198;22.084;2023-06-05T10:41:34;22;19;
63707;PMS5003;67643;-34.198;22.084;2023-06-05T10:44:03;19;18;
63707;PMS5003;67643;-34.198;22.084;2023-06-05T10:46:31;19;15;
63707;PMS5003;67643;-34.198;22.084;2023-06-05T10:49:09;21;18;
63707;PMS5003;67643;-34.198;22.084;2023-06-05T10:51:39;21;15;
63707;PMS5003;67643;-34.198;22.084;2023-06-05T10:54:08;17;13;
63707;PMS5003;67643;-34.198;22.084;2023-06-05T10:57:10;13;13;
63707;PMS5003;67643;-34.198;22.084;2023-06-05T10:59:39;12;8;
63707;PMS5003;67643;-34.198;22.084;2023-06-05T11:02:23;13;10;
63707;PMS5003;67643;-34.198;22.084;2023-06-05T11:05:09;13;11;
63707;PMS5003;67643;-34.198;22.084;2023-06-05T11:07:38;12;9;
63707;PMS5003;67643;-34.198;22.084;2023-06-05T11:10:09;7;7;
63707;PMS5003;67643;-34.198;22.084;2023-06-05T11:13:12;7;7;
63707;PMS5003;67643;-34.198;22.084;2023-06-05T11:15:42;7;5;
63707;PMS5003;67643;-34.198;22.084;2023-06-05T11:18:42;8;6;
63707;PMS5003;67643;-34.198;22.084;2023-06-05T11:21:11;7;6;
63707;PMS5003;67643;-34.198;22.084;2023-06-05T11:23:39;2;2;
63707;PMS5003;67643;-34.198;22.084;2023-06-05T11:26:40;3;3;
63707;PMS5003;67643;-34.198;22.084;2023-06-05T11:29:11;5;4;
63707;PMS5003;67643;-34.198;22.084;2023-06-05T11:31:41;5;2;
63707;PMS5003;67643;-34.198;22.084;2023-06-05T11:34:11;3;3;
63707;PMS5003;67643;-34.198;22.084;2023-06-05T11:36:40;5;4;
63707;PMS5003;67643;-34.198;22.084;2023-06-05T11:39:10;2;2;
63707;PMS5003;67643;-34.198;22.084;2023-06-05T11:41:43;2;2;
63707;PMS5003;67643;-34.198;22.084;2023-06-05T11:44:13;9;1;
63707;PMS5003;67643;-34.198;22.084;2023-06-05T11:46:43;4;3;
63707;PMS5003;67643;-34.198;22.084;2023-06-05T11:49:22;2;1;
63707;PMS5003;67643;-34.198;22.084;2023-06-05T11:51:52;2;2;
63707;PMS5003;67643;-34.198;22.084;2023-06-05T11:54:25;2;2;
63707;PMS5003;67643;-34.198;22.084;2023-06-05T11:56:58;2;1;
63707;PMS5003;67643;-34.198;22.084;2023-06-05T11:59:27;3;2;
63707;PMS5003;67643;-34.198;22.084;2023-06-05T12:01:57;2;0;
63707;PMS5003;67643;-34.198;22.084;2023-06-05T12:04:25;3;2;
63707;PMS5003;67643;-34.198;22.084;2023-06-05T12:06:53;5;2;
63707;PMS5003;67643;-34.198;22.084;2023-06-05T12:09:22;7;1;
63707;PMS5003;67643;-34.198;22.084;2023-06-05T12:11:50;0;0;
63707;PMS5003;67643;-34.198;22.084;2023-06-05T12:14:36;3;1;
63707;PMS5003;67643;-34.198;22.084;2023-06-05T12:17:08;3;2;
63707;PMS5003;67643;-34.198;22.084;2023-06-05T12:19:37;4;1;
63707;PMS5003;67643;-34.198;22.084;2023-06-05T12:22:06;2;2;
63707;PMS5003;67643;-34.198;22.084;2023-06-05T12:24:35;1;1;
63707;PMS5003;67643;-34.198;22.084;2023-06-05T12:27:04;1;0;
63707;PMS5003;67643;-34.198;22.084;2023-06-05T12:29:33;2;1;
63707;PMS5003;67643;-34.198;22.084;2023-06-05T12:32:03;0;0;
63707;PMS5003;67643;-34.198;22.084;2023-06-05T12:34:48;3;2;
63707;PMS5003;67643;-34.198;22.084;2023-06-05T12:37:25;6;2;
63707;PMS5003;67643;-34.198;22.084;2023-06-05T12:39:54;2;1;
63707;PMS5003;67643;-34.198;22.084;2023-06-05T12:42:23;4;1;
63707;PMS5003;67643;-34.198;22.084;2023-06-05T12:44:51;1;0;
63707;PMS5003;67643;-34.198;22.084;2023-06-05T12:47:20;6;2;
63707;PMS5003;67643;-34.198;22.084;2023-06-05T12:49:48;1;1;
63707;PMS5003;67643;-34.198;22.084;2023-06-05T12:52:17;2;1;
63707;PMS5003;67643;-34.198;22.084;2023-06-05T12:54:46;2;1;
63707;PMS5003;67643;-34.198;22.084;2023-06-05T12:57:19;1;1;
63707;PMS5003;67643;-34.198;22.084;2023-06-05T12:59:48;1;1;
63707;PMS5003;67643;-34.198;22.084;2023-06-05T13:02:18;1;1;
63707;PMS5003;67643;-34.198;22.084;2023-06-05T13:04:47;2;2;
63707;PMS5003;67643;-34.198;22.084;2023-06-05T13:07:16;1;1;
63707;PMS5003;67643;-34.198;22.084;2023-06-05T13:09:44;5;1;
63707;PMS5003;67643;-34.198;22.084;2023-06-05T13:12:14;0;0;
63707;PMS5003;67643;-34.198;22.084;2023-06-05T13:14:42;1;1;
63707;PMS5003;67643;-34.198;22.084;2023-06-05T13:17:11;0;0;
63707;PMS5003;67643;-34.198;22.084;2023-06-05T13:19:39;2;0;
63707;PMS5003;67643;-34.198;22.084;2023-06-05T13:22:08;1;1;
63707;PMS5003;67643;-34.198;22.084;2023-06-05T13:24:36;3;2;
63707;PMS5003;67643;-34.198;22.084;2023-06-05T13:27:05;2;1;
63707;PMS5003;67643;-34.198;22.084;2023-06-05T13:29:33;4;1;
63707;PMS5003;67643;-34.198;22.084;2023-06-05T13:32:03;2;2;
63707;PMS5003;67643;-34.198;22.084;2023-06-05T13:34:31;1;1;
63707;PMS5003;67643;-34.198;22.084;2023-06-05T13:37:00;3;0;
63707;PMS5003;67643;-34.198;22.084;2023-06-05T13:39:28;1;1;
63707;PMS5003;67643;-34.198;22.084;2023-06-05T13:41:57;3;1;
63707;PMS5003;67643;-34.198;22.084;2023-06-05T13:44:25;3;3;
63707;PMS5003;67643;-34.198;22.084;2023-06-05T13:46:54;4;4;
63707;PMS5003;67643;-34.198;22.084;2023-06-05T13:49:23;1;1;
63707;PMS5003;67643;-34.198;22.084;2023-06-05T13:51:51;4;2;
63707;PMS5003;67643;-34.198;22.084;2023-06-05T13:54:20;3;3;
63707;PMS5003;67643;-34.198;22.084;2023-06-05T13:56:48;3;2;
63707;PMS5003;67643;-34.198;22.084;2023-06-05T13:59:17;5;4;
63707;PMS5003;67643;-34.198;22.084;2023-06-05T14:01:45;5;3;
63707;PMS5003;67643;-34.198;22.084;2023-06-05T14:04:14;2;2;
63707;PMS5003;67643;-34.198;22.084;2023-06-05T14:06:42;3;1;
63707;PMS5003;67643;-34.198;22.084;2023-06-05T14:09:11;3;1;
63707;PMS5003;67643;-34.198;22.084;2023-06-05T14:11:40;4;3;
63707;PMS5003;67643;-34.198;22.084;2023-06-05T14:14:08;4;2;
63707;PMS5003;67643;-34.198;22.084;2023-06-05T14:16:36;2;0;
63707;PMS5003;67643;-34.198;22.084;2023-06-05T14:19:05;2;2;
63707;PMS5003;67643;-34.198;22.084;2023-06-05T14:21:34;1;1;
63707;PMS5003;67643;-34.198;22.084;2023-06-05T14:24:02;2;1;
63707;PMS5003;67643;-34.198;22.084;2023-06-05T14:26:31;1;1;
63707;PMS5003;67643;-34.198;22.084;2023-06-05T14:28:59;3;2;
63707;PMS5003;67643;-34.198;22.084;2023-06-05T14:31:28;1;1;
63707;PMS5003;67643;-34.198;22.084;2023-06-05T14:33:57;3;1;
63707;PMS5003;67643;-34.198;22.084;2023-06-05T14:36:26;2;0;
63707;PMS5003;67643;-34.198;22.084;2023-06-05T14:38:54;2;2;
63707;PMS5003;67643;-34.198;22.084;2023-06-05T14:41:23;2;2;
63707;PMS5003;67643;-34.198;22.084;2023-06-05T14:43:51;3;2;
63707;PMS5003;67643;-34.198;22.084;2023-06-05T14:46:20;5;2;
63707;PMS5003;67643;-34.198;22.084;2023-06-05T14:48:49;4;4;
63707;PMS5003;67643;-34.198;22.084;2023-06-05T14:51:17;2;2;
63707;PMS5003;67643;-34.198;22.084;2023-06-05T14:53:46;2;2;
63707;PMS5003;67643;-34.198;22.084;2023-06-05T14:56:14;5;2;
63707;PMS5003;67643;-34.198;22.084;2023-06-05T14:58:43;6;2;
63707;PMS5003;67643;-34.198;22.084;2023-06-05T15:01:11;7;6;
63707;PMS5003;67643;-34.198;22.084;2023-06-05T15:03:40;13;4;
63707;PMS5003;67643;-34.198;22.084;2023-06-05T15:06:08;8;4;
63707;PMS5003;67643;-34.198;22.084;2023-06-05T15:08:37;9;4;
63707;PMS5003;67643;-34.198;22.084;2023-06-05T15:11:06;8;5;
63707;PMS5003;67643;-34.198;22.084;2023-06-05T15:13:34;4;4;
63707;PMS5003;67643;-34.198;22.084;2023-06-05T15:16:03;10;4;
63707;PMS5003;67643;-34.198;22.084;2023-06-05T15:18:31;6;6;
63707;PMS5003;67643;-34.198;22.084;2023-06-05T15:21:00;9;3;
63707;PMS5003;67643;-34.198;22.084;2023-06-05T15:23:28;3;3;
63707;PMS5003;67643;-34.198;22.084;2023-06-05T15:25:57;7;4;
63707;PMS5003;67643;-34.198;22.084;2023-06-05T15:28:26;5;3;
63707;PMS5003;67643;-34.198;22.084;2023-06-05T15:30:54;8;5;
63707;PMS5003;67643;-34.198;22.084;2023-06-05T15:33:23;6;4;
63707;PMS5003;67643;-34.198;22.084;2023-06-05T15:35:52;10;7;
63707;PMS5003;67643;-34.198;22.084;2023-06-05T15:38:21;4;3;
63707;PMS5003;67643;-34.198;22.084;2023-06-05T15:40:49;6;4;
63707;PMS5003;67643;-34.198;22.084;2023-06-05T15:43:18;3;3;
63707;PMS5003;67643;-34.198;22.084;2023-06-05T15:45:46;3;3;
63707;PMS5003;67643;-34.198;22.084;2023-06-05T15:48:15;8;5;
63707;PMS5003;67643;-34.198;22.084;2023-06-05T15:50:43;7;4;
63707;PMS5003;67643;-34.198;22.084;2023-06-05T15:53:12;5;3;
63707;PMS5003;67643;-34.198;22.084;2023-06-05T15:55:41;4;2;
63707;PMS5003;67643;-34.198;22.084;2023-06-05T15:58:10;6;4;
63707;PMS5003;67643;-34.198;22.084;2023-06-05T16:00:38;12;6;
63707;PMS5003;67643;-34.198;22.084;2023-06-05T18:08:27;9;8;
63707;PMS5003;67643;-34.198;22.084;2023-06-05T18:10:56;7;7;
63707;PMS5003;67643;-34.198;22.084;2023-06-05T18:13:24;13;7;
63707;PMS5003;67643;-34.198;22.084;2023-06-05T18:15:53;18;10;
63707;PMS5003;67643;-34.198;22.084;2023-06-05T18:18:21;12;9;
63707;PMS5003;67643;-34.198;22.084;2023-06-05T18:20:50;11;6;
63707;PMS5003;67643;-34.198;22.084;2023-06-05T18:23:19;15;9;
63707;PMS5003;67643;-34.198;22.084;2023-06-05T18:25:47;11;8;
63707;PMS5003;67643;-34.198;22.084;2023-06-05T18:28:15;13;9;
63707;PMS5003;67643;-34.198;22.084;2023-06-05T18:30:44;11;9;
63707;PMS5003;67643;-34.198;22.084;2023-06-05T18:33:13;14;11;
63707;PMS5003;67643;-34.198;22.084;2023-06-05T18:35:42;9;9;
63707;PMS5003;67643;-34.198;22.084;2023-06-05T18:38:10;13;9;
63707;PMS5003;67643;-34.198;22.084;2023-06-05T18:40:38;11;9;
63707;PMS5003;67643;-34.198;22.084;2023-06-05T18:43:07;15;11;